createdAt,value
2023-03-27T00:00:30.502Z,9.84
2023-03-27T00:03:01.685Z,9.87
2023-03-27T00:05:15.105Z,9.90
2023-03-27T00:07:27.928Z,9.92
2023-03-27T00:09:41.803Z,9.96
2023-03-27T00:11:57.019Z,9.98
2023-03-27T00:14:10.348Z,10.01
2023-03-27T00:16:23.695Z,10.01
2023-03-27T00:18:37.501Z,10.02
2023-03-27T00:20:50.017Z,10.03
2023-03-27T00:23:03.628Z,10.03
2023-03-27T00:25:18.154Z,10.04
2023-03-27T00:27:30.966Z,10.05
2023-03-27T00:29:44.017Z,10.01
2023-03-27T00:31:56.745Z,9.96
2023-03-27T00:34:09.369Z,9.89
2023-03-27T00:36:22.195Z,9.87
2023-03-27T00:38:35.263Z,9.83
2023-03-27T00:40:48.981Z,9.75
2023-03-27T00:43:02.121Z,9.67
2023-03-27T00:45:22.860Z,9.59
2023-03-27T00:47:40.429Z,9.52
2023-03-27T00:49:54.971Z,9.44
2023-03-27T00:52:09.681Z,9.36
2023-03-27T00:54:27.478Z,9.28
2023-03-27T00:56:42.006Z,9.21
2023-03-27T00:58:57.271Z,9.16
2023-03-27T01:01:10.982Z,9.11
2023-03-27T01:03:27.810Z,9.04
2023-03-27T01:05:41.559Z,8.95
2023-03-27T01:08:00.333Z,8.86
2023-03-27T01:10:17.475Z,8.81
2023-03-27T01:12:44.177Z,8.76
2023-03-27T01:15:08.654Z,8.72
2023-03-27T01:17:37.506Z,8.66
2023-03-27T01:20:16.909Z,8.61
2023-03-27T01:23:01.910Z,8.57
2023-03-27T01:25:54.574Z,8.53
2023-03-27T01:28:22.963Z,8.50
2023-03-27T01:30:39.410Z,8.45
2023-03-27T01:33:20.682Z,8.42
2023-03-27T01:35:57.533Z,8.38
2023-03-27T01:38:47.324Z,8.34
2023-03-27T01:41:08.131Z,8.30
2023-03-27T01:43:28.576Z,8.29
2023-03-27T01:45:48.643Z,8.27
2023-03-27T01:48:08.145Z,8.24
2023-03-27T01:50:27.188Z,8.20
2023-03-27T01:52:45.509Z,8.18
2023-03-27T01:55:06.012Z,8.16
2023-03-27T01:57:26.557Z,8.11
2023-03-27T01:59:42.787Z,8.05
2023-03-27T02:02:02.202Z,7.97
2023-03-27T02:04:20.736Z,7.91
2023-03-27T02:06:39.271Z,7.82
2023-03-27T02:08:58.785Z,7.73
2023-03-27T02:11:12.609Z,7.66
2023-03-27T02:13:31.740Z,7.61
2023-03-27T02:15:46.967Z,7.56
2023-03-27T02:18:06.231Z,7.52
2023-03-27T02:20:21.563Z,7.45
2023-03-27T02:22:38.377Z,7.38
2023-03-27T02:24:52.822Z,7.31
2023-03-27T02:27:13.857Z,7.24
2023-03-27T02:29:42.331Z,7.19
2023-03-27T02:32:07.709Z,7.17
2023-03-27T02:34:41.631Z,7.14
2023-03-27T02:37:03.101Z,7.10
2023-03-27T02:39:37.184Z,7.06
2023-03-27T02:41:56.626Z,7.03
2023-03-27T02:44:31.116Z,6.99
2023-03-27T02:46:55.102Z,6.98
2023-03-27T02:49:12.255Z,6.94
2023-03-27T02:51:30.365Z,6.93
2023-03-27T02:53:47.189Z,6.92
2023-03-27T02:56:02.679Z,6.91
2023-03-27T02:58:21.974Z,6.88
2023-03-27T03:00:52.999Z,6.85
2023-03-27T03:03:19.584Z,6.82
2023-03-27T03:05:40.744Z,6.76
2023-03-27T03:07:55.345Z,6.70
2023-03-27T03:10:12.571Z,6.68
2023-03-27T03:12:25.915Z,6.63
2023-03-27T03:14:45.130Z,6.56
2023-03-27T03:16:58.126Z,6.49
2023-03-27T03:19:10.841Z,6.43
2023-03-27T03:21:23.585Z,6.38
2023-03-27T03:23:36.450Z,6.34
2023-03-27T03:25:51.412Z,6.32
2023-03-27T03:28:09.136Z,6.25
2023-03-27T03:30:22.409Z,6.19
2023-03-27T03:32:42.263Z,6.14
2023-03-27T03:34:55.141Z,6.09
2023-03-27T03:37:11.627Z,6.04
2023-03-27T03:39:26.161Z,5.99
2023-03-27T03:41:38.908Z,5.95
2023-03-27T03:43:52.768Z,5.91
2023-03-27T03:46:06.657Z,5.87
2023-03-27T03:48:21.288Z,5.82
2023-03-27T03:50:34.707Z,5.76
2023-03-27T03:52:48.243Z,5.72
2023-03-27T03:55:01.521Z,5.71
2023-03-27T03:57:15.384Z,5.70
2023-03-27T03:59:31.293Z,5.66
2023-03-27T04:02:19.276Z,5.63
2023-03-27T04:04:33.346Z,5.58
2023-03-27T04:06:54.089Z,5.53
2023-03-27T04:09:06.891Z,5.48
2023-03-27T04:11:41.388Z,5.46
2023-03-27T04:14:09.571Z,5.41
2023-03-27T04:16:26.878Z,5.37
2023-03-27T04:18:42.197Z,5.33
2023-03-27T04:21:01.427Z,5.29
2023-03-27T04:23:14.939Z,5.25
2023-03-27T04:25:29.412Z,5.23
2023-03-27T04:27:42.295Z,5.21
2023-03-27T04:30:05.167Z,5.19
2023-03-27T04:32:47.699Z,5.11
2023-03-27T04:35:38.798Z,5.03
2023-03-27T04:38:03.860Z,4.96
2023-03-27T04:40:26.414Z,4.93
2023-03-27T04:42:43.460Z,4.90
2023-03-27T04:44:56.829Z,4.88
2023-03-27T04:47:10.865Z,4.85
2023-03-27T04:49:26.151Z,4.82
2023-03-27T04:51:46.417Z,4.80
2023-03-27T04:54:00.905Z,4.77
2023-03-27T04:56:15.831Z,4.75
2023-03-27T04:58:29.608Z,4.73
2023-03-27T05:00:44.899Z,4.73
2023-03-27T05:03:29.381Z,4.71
2023-03-27T05:05:50.641Z,4.69
2023-03-27T05:08:04.423Z,4.69
2023-03-27T05:10:21.814Z,4.67
2023-03-27T05:12:35.996Z,4.63
2023-03-27T05:14:49.606Z,4.63
2023-03-27T05:17:19.252Z,4.62
2023-03-27T05:19:32.756Z,4.61
2023-03-27T05:21:47.567Z,4.59
2023-03-27T05:24:01.227Z,4.56
2023-03-27T05:26:13.953Z,4.55
2023-03-27T05:28:41.192Z,4.56
2023-03-27T05:30:55.522Z,4.56
2023-03-27T05:33:09.488Z,4.55
2023-03-27T05:35:25.298Z,4.54
2023-03-27T05:37:39.724Z,4.53
2023-03-27T05:40:22.151Z,4.51
2023-03-27T05:42:35.315Z,4.48
2023-03-27T05:44:48.930Z,4.46
2023-03-27T05:47:02.334Z,4.42
2023-03-27T05:49:16.531Z,4.37
2023-03-27T05:51:30.994Z,4.34
2023-03-27T05:53:44.319Z,4.31
2023-03-27T05:56:03.824Z,4.28
2023-03-27T05:58:26.113Z,4.25
2023-03-27T06:00:46.977Z,4.24
2023-03-27T06:03:05.849Z,4.23
2023-03-27T06:05:36.312Z,4.22
2023-03-27T06:07:49.956Z,4.22
2023-03-27T06:10:04.116Z,4.21
2023-03-27T06:12:28.914Z,4.19
2023-03-27T06:14:48.603Z,4.15
2023-03-27T06:17:17.789Z,4.11
2023-03-27T06:19:37.194Z,4.08
2023-03-27T06:21:50.700Z,4.06
2023-03-27T06:24:03.735Z,4.03
2023-03-27T06:26:16.978Z,4.01
2023-03-27T06:28:30.908Z,4.01
2023-03-27T06:30:44.091Z,4.00
2023-03-27T06:33:16.354Z,3.98
2023-03-27T06:35:32.109Z,3.96
2023-03-27T06:38:00.185Z,3.93
2023-03-27T06:40:21.704Z,3.91
2023-03-27T06:42:36.958Z,3.89
2023-03-27T06:45:09.088Z,3.86
2023-03-27T06:47:51.654Z,3.84
2023-03-27T06:50:37.170Z,3.81
2023-03-27T06:52:51.195Z,3.79
2023-03-27T06:55:25.616Z,3.75
2023-03-27T06:57:39.336Z,3.71
2023-03-27T06:59:52.514Z,3.69
2023-03-27T07:02:08.646Z,3.69
2023-03-27T07:04:38.380Z,3.67
2023-03-27T07:07:06.182Z,3.67
2023-03-27T07:09:22.049Z,3.66
2023-03-27T07:11:44.588Z,3.65
2023-03-27T07:13:58.076Z,3.64
2023-03-27T07:16:15.030Z,3.63
2023-03-27T07:18:28.284Z,3.63
2023-03-27T07:20:41.994Z,3.62
2023-03-27T07:22:58.463Z,3.61
2023-03-27T07:25:33.777Z,3.59
2023-03-27T07:27:47.809Z,3.56
2023-03-27T07:30:02.599Z,3.55
2023-03-27T07:32:29.670Z,3.53
2023-03-27T07:34:51.018Z,3.50
2023-03-27T07:37:25.920Z,3.48
2023-03-27T07:39:59.172Z,3.46
2023-03-27T07:42:12.299Z,3.45
2023-03-27T07:44:54.018Z,3.43
2023-03-27T07:47:11.411Z,3.41
2023-03-27T07:49:39.374Z,3.40
2023-03-27T07:51:58.559Z,3.39
2023-03-27T07:54:14.414Z,3.38
2023-03-27T07:56:32.951Z,3.36
2023-03-27T07:59:02.802Z,3.33
2023-03-27T08:01:15.759Z,3.31
2023-03-27T08:03:29.303Z,3.28
2023-03-27T08:05:42.685Z,3.27
2023-03-27T08:07:57.025Z,3.25
2023-03-27T08:10:26.104Z,3.24
2023-03-27T08:12:43.961Z,3.23
2023-03-27T08:14:56.928Z,3.21
2023-03-27T08:17:16.256Z,3.19
2023-03-27T08:19:29.534Z,3.18
2023-03-27T08:21:45.008Z,3.16
2023-03-27T08:23:59.717Z,3.15
2023-03-27T08:26:33.416Z,3.13
2023-03-27T08:28:48.912Z,3.10
2023-03-27T08:31:02.811Z,3.07
2023-03-27T08:33:20.431Z,3.04
2023-03-27T08:35:33.568Z,3.00
2023-03-27T08:37:47.720Z,2.99
2023-03-27T08:40:29.807Z,2.97
2023-03-27T08:43:13.787Z,2.93
2023-03-27T08:45:31.892Z,2.93
2023-03-27T08:47:53.684Z,2.91
2023-03-27T08:50:21.296Z,2.89
2023-03-27T08:52:39.003Z,2.88
2023-03-27T08:54:59.373Z,2.87
2023-03-27T08:57:24.858Z,2.85
2023-03-27T08:59:40.735Z,2.81
2023-03-27T09:02:06.738Z,2.82
2023-03-27T09:04:31.176Z,2.81
2023-03-27T09:06:51.667Z,2.82
2023-03-27T09:09:10.050Z,2.82
2023-03-27T09:11:35.817Z,2.81
2023-03-27T09:13:52.828Z,2.81
2023-03-27T09:16:14.593Z,2.81
2023-03-27T09:18:34.529Z,2.80
2023-03-27T09:20:52.573Z,2.79
2023-03-27T09:23:14.544Z,2.78
2023-03-27T09:25:48.799Z,2.78
2023-03-27T09:28:33.443Z,2.75
2023-03-27T09:30:48.868Z,2.73
2023-03-27T09:33:14.077Z,2.70
2023-03-27T09:35:29.359Z,2.69
2023-03-27T09:37:43.917Z,2.68
2023-03-27T09:39:58.331Z,2.67
2023-03-27T09:42:20.098Z,2.67
2023-03-27T09:44:36.195Z,2.67
2023-03-27T09:46:53.611Z,2.68
2023-03-27T09:49:15.303Z,2.68
2023-03-27T09:51:46.113Z,2.69
2023-03-27T09:54:05.548Z,2.72
2023-03-27T09:56:21.681Z,2.73
2023-03-27T09:58:45.071Z,2.73
2023-03-27T10:01:20.925Z,2.74
2023-03-27T10:03:43.531Z,2.76
2023-03-27T10:06:12.707Z,2.77
2023-03-27T10:08:43.710Z,2.79
2023-03-27T10:11:09.346Z,2.79
2023-03-27T10:13:30.325Z,2.81
2023-03-27T10:15:44.942Z,2.81
2023-03-27T10:18:07.865Z,2.81
2023-03-27T10:20:23.696Z,2.81
2023-03-27T10:22:41.823Z,2.80
2023-03-27T10:24:56.580Z,2.78
2023-03-27T10:27:25.991Z,2.76
2023-03-27T10:30:28.508Z,2.73
2023-03-27T10:32:53.075Z,2.71
2023-03-27T10:35:36.769Z,2.68
2023-03-27T10:38:03.279Z,2.64
2023-03-27T10:40:23.312Z,2.62
2023-03-27T10:42:39.619Z,2.57
2023-03-27T10:44:55.649Z,2.54
2023-03-27T10:47:18.989Z,2.51
2023-03-27T10:49:39.713Z,2.49
2023-03-27T10:51:55.937Z,2.47
2023-03-27T10:54:29.445Z,2.45
2023-03-27T10:56:55.620Z,2.42
2023-03-27T10:59:21.573Z,2.40
2023-03-27T11:01:46.347Z,2.36
2023-03-27T11:04:04.729Z,2.33
2023-03-27T11:06:24.676Z,2.32
2023-03-27T11:08:46.389Z,2.29
2023-03-27T11:11:11.729Z,2.25
2023-03-27T11:13:32.088Z,2.22
2023-03-27T11:15:55.268Z,2.20
2023-03-27T11:18:31.020Z,2.17
2023-03-27T11:20:51.785Z,2.14
2023-03-27T11:23:33.845Z,2.11
2023-03-27T11:26:10.603Z,2.07
2023-03-27T11:28:29.293Z,2.04
2023-03-27T11:30:47.046Z,2.02
2023-03-27T11:33:12.432Z,2.01
2023-03-27T11:35:29.163Z,1.98
2023-03-27T11:38:09.181Z,1.97
2023-03-27T11:40:31.594Z,1.91
2023-03-27T11:42:48.726Z,1.87
2023-03-27T11:45:05.696Z,1.85
2023-03-27T11:47:45.946Z,1.82
2023-03-27T11:53:10.087Z,1.76
2023-03-27T11:56:10.009Z,1.70
2023-03-27T11:58:34.470Z,1.66
2023-03-27T12:00:56.495Z,1.62
2023-03-27T12:03:42.468Z,1.60
2023-03-27T12:06:15.195Z,1.59
2023-03-27T12:08:43.083Z,1.58
2023-03-27T12:11:00.414Z,1.53
2023-03-27T12:14:01.529Z,1.50
2023-03-27T12:16:56.227Z,1.48
2023-03-27T12:19:36.234Z,1.44
2023-03-27T12:22:23.906Z,1.43
2023-03-27T12:25:00.251Z,1.42
2023-03-27T12:28:04.136Z,1.40
2023-03-27T12:30:36.474Z,1.39
2023-03-27T12:33:05.700Z,1.36
2023-03-27T12:35:22.893Z,1.33
2023-03-27T12:37:45.567Z,1.31
2023-03-27T12:40:00.961Z,1.30
2023-03-27T12:42:55.410Z,1.28
2023-03-27T12:45:19.048Z,1.27
2023-03-27T12:47:36.206Z,1.22
2023-03-27T12:50:03.618Z,1.22
2023-03-27T12:52:22.249Z,1.22
2023-03-27T12:55:05.410Z,1.21
2023-03-27T12:57:53.119Z,1.21
2023-03-27T13:00:29.903Z,1.19
2023-03-27T13:03:25.802Z,1.20
2023-03-27T13:06:07.828Z,1.19
2023-03-27T13:08:54.626Z,1.20
2023-03-27T13:11:32.518Z,1.21
2023-03-27T13:14:20.890Z,1.21
2023-03-27T13:16:46.540Z,1.21
2023-03-27T13:19:28.445Z,1.21
2023-03-27T13:22:12.586Z,1.21
2023-03-27T13:24:41.108Z,1.20
2023-03-27T13:27:14.466Z,1.20
2023-03-27T13:29:28.602Z,1.18
2023-03-27T13:32:08.507Z,1.18
2023-03-27T13:34:42.342Z,1.18
2023-03-27T13:37:36.864Z,1.19
2023-03-27T13:40:08.820Z,1.19
2023-03-27T13:42:28.137Z,1.20
2023-03-27T13:44:54.716Z,1.20
2023-03-27T13:47:35.932Z,1.21
2023-03-27T13:50:14.138Z,1.22
2023-03-27T13:52:47.155Z,1.24
2023-03-27T13:55:30.814Z,1.25
2023-03-27T13:58:22.397Z,1.25
2023-03-27T14:01:08.706Z,1.26
2023-03-27T14:03:56.582Z,1.25
2023-03-27T14:06:40.846Z,1.26
2023-03-27T14:09:02.125Z,1.24
2023-03-27T14:11:53.871Z,1.24
2023-03-27T14:15:10.617Z,1.26
2023-03-27T14:17:41.627Z,1.27
2023-03-27T14:20:26.024Z,1.27
2023-03-27T14:22:44.313Z,1.28
2023-03-27T14:25:03.706Z,1.29
2023-03-27T14:27:29.716Z,1.30
2023-03-27T14:29:45.652Z,1.31
2023-03-27T14:32:04.631Z,1.32
2023-03-27T14:34:25.962Z,1.33
2023-03-27T14:36:54.623Z,1.34
2023-03-27T14:39:21.257Z,1.36
2023-03-27T14:41:38.203Z,1.38
2023-03-27T14:43:54.415Z,1.40
2023-03-27T14:46:10.313Z,1.42
2023-03-27T14:48:27.832Z,1.46
2023-03-27T14:50:41.872Z,1.49
2023-03-27T14:53:01.718Z,1.52
2023-03-27T14:55:27.505Z,1.55
2023-03-27T14:58:11.248Z,1.60
2023-03-27T15:00:29.148Z,1.64
2023-03-27T15:02:43.806Z,1.68
2023-03-27T15:04:57.703Z,1.71
2023-03-27T15:07:21.034Z,1.74
2023-03-27T15:09:47.364Z,1.79
2023-03-27T15:12:31.539Z,1.84
2023-03-27T15:14:44.725Z,1.87
2023-03-27T15:17:02.718Z,1.93
2023-03-27T15:19:24.220Z,1.99
2023-03-27T15:21:51.979Z,2.06
2023-03-27T15:24:11.381Z,2.15
2023-03-27T15:26:28.527Z,2.25
2023-03-27T15:28:45.488Z,2.34
2023-03-27T15:31:01.005Z,2.45
2023-03-27T15:33:21.547Z,2.62
2023-03-27T15:35:40.039Z,2.83
2023-03-27T15:37:53.952Z,3.23
2023-03-27T15:40:27.781Z,3.81
2023-03-27T15:42:56.072Z,4.43
2023-03-27T15:45:12.708Z,4.94
2023-03-27T15:47:33.537Z,5.29
2023-03-27T15:49:47.230Z,5.61
2023-03-27T15:52:02.347Z,5.75
2023-03-27T15:54:32.328Z,5.82
2023-03-27T15:56:47.322Z,5.84
2023-03-27T15:59:04.934Z,5.74
2023-03-27T16:01:21.289Z,5.62
2023-03-27T16:03:37.185Z,5.49
2023-03-27T16:05:50.693Z,5.39
2023-03-27T16:08:03.500Z,5.30
2023-03-27T16:10:17.880Z,5.23
2023-03-27T16:12:35.511Z,5.23
2023-03-27T16:15:00.368Z,5.28
2023-03-27T16:17:35.390Z,5.39
2023-03-27T16:19:58.695Z,5.55
2023-03-27T16:22:11.449Z,5.80
2023-03-27T16:24:24.442Z,6.01
2023-03-27T16:26:37.795Z,6.22
2023-03-27T16:28:51.150Z,6.43
2023-03-27T16:31:12.655Z,6.61
2023-03-27T16:33:28.541Z,6.71
2023-03-27T16:35:41.702Z,6.77
2023-03-27T16:37:55.013Z,6.80
2023-03-27T16:40:08.000Z,6.81
2023-03-27T16:42:26.083Z,6.85
2023-03-27T16:44:40.185Z,6.93
2023-03-27T16:46:53.357Z,7.24
2023-03-27T16:49:06.399Z,7.56
2023-03-27T16:51:19.121Z,7.81
2023-03-27T16:53:32.046Z,8.08
2023-03-27T16:55:46.057Z,8.29
2023-03-27T16:57:59.239Z,8.45
2023-03-27T17:00:14.896Z,8.58
2023-03-27T17:02:28.061Z,8.68
2023-03-27T17:04:41.054Z,8.77
2023-03-27T17:06:59.271Z,8.93
2023-03-27T17:09:13.818Z,9.12
2023-03-27T17:11:26.713Z,9.29
2023-03-27T17:13:42.894Z,9.46
2023-03-27T17:15:57.606Z,9.64
2023-03-27T17:18:10.832Z,9.78
2023-03-27T17:20:24.027Z,9.93
2023-03-27T17:22:37.286Z,10.11
2023-03-27T17:24:56.746Z,10.27
2023-03-27T17:27:09.844Z,10.50
2023-03-27T17:29:22.906Z,10.72
2023-03-27T17:31:35.862Z,10.94
2023-03-27T17:33:48.483Z,11.14
2023-03-27T17:36:01.502Z,11.35
2023-03-27T17:38:14.811Z,11.53
2023-03-27T17:40:30.336Z,11.69
2023-03-27T17:42:43.315Z,11.85
2023-03-27T17:45:03.693Z,12.09
2023-03-27T17:47:16.630Z,12.33
2023-03-27T17:49:30.761Z,12.57
2023-03-27T17:51:43.476Z,12.76
2023-03-27T17:53:56.329Z,12.97
2023-03-27T17:56:10.332Z,13.21
2023-03-27T17:58:24.015Z,13.43
2023-03-27T18:00:36.915Z,13.64
2023-03-27T18:02:50.283Z,13.82
2023-03-27T18:05:03.010Z,13.95
2023-03-27T18:07:15.587Z,14.01
2023-03-27T18:09:29.218Z,14.03
2023-03-27T18:11:43.170Z,14.07
2023-03-27T18:13:57.700Z,14.14
2023-03-27T18:16:13.294Z,14.19
2023-03-27T18:18:27.492Z,14.13
2023-03-27T18:20:42.466Z,14.05
2023-03-27T18:22:56.098Z,14.03
2023-03-27T18:25:11.056Z,13.82
2023-03-27T18:27:24.197Z,13.73
2023-03-27T18:29:38.819Z,13.80
2023-03-27T18:31:53.041Z,13.89
2023-03-27T18:34:09.236Z,13.89
2023-03-27T18:36:22.816Z,13.86
2023-03-27T18:38:36.120Z,13.85
2023-03-27T18:40:50.730Z,13.90
2023-03-27T18:43:05.597Z,13.88
2023-03-27T18:45:19.649Z,13.82
2023-03-27T18:47:33.232Z,13.79
2023-03-27T18:49:47.307Z,13.76
2023-03-27T18:51:59.988Z,13.78
2023-03-27T18:54:14.400Z,13.88
2023-03-27T18:56:27.577Z,13.98
2023-03-27T18:58:40.242Z,14.09
2023-03-27T19:00:53.320Z,14.19
2023-03-27T19:03:06.520Z,14.12
2023-03-27T19:05:19.766Z,14.17
2023-03-27T19:07:32.721Z,14.25
2023-03-27T19:09:45.507Z,14.11
2023-03-27T19:11:58.837Z,14.08
2023-03-27T19:14:30.368Z,14.02
2023-03-27T19:17:05.039Z,14.03
2023-03-27T19:19:25.484Z,14.04
2023-03-27T19:21:39.371Z,14.09
2023-03-27T19:24:04.178Z,14.15
2023-03-27T19:26:27.396Z,14.10
2023-03-27T19:28:41.444Z,14.00
2023-03-27T19:30:55.754Z,13.96
2023-03-27T19:33:08.479Z,13.93
2023-03-27T19:35:22.359Z,13.79
2023-03-27T19:37:35.383Z,13.74
2023-03-27T19:39:48.259Z,13.79
2023-03-27T19:42:01.353Z,13.83
2023-03-27T19:44:17.058Z,13.86
2023-03-27T19:46:30.208Z,14.00
2023-03-27T19:48:44.976Z,14.12
2023-03-27T19:51:19.003Z,14.10
2023-03-27T19:53:37.699Z,14.08
2023-03-27T19:55:52.206Z,14.15
2023-03-27T19:58:06.117Z,14.23
2023-03-27T20:00:22.437Z,14.18
2023-03-27T20:02:37.038Z,14.09
2023-03-27T20:04:51.754Z,14.10
2023-03-27T20:07:08.128Z,14.11
2023-03-27T20:09:21.867Z,14.20
2023-03-27T20:11:35.421Z,14.15
2023-03-27T20:13:56.121Z,14.15
2023-03-27T20:16:15.986Z,14.19
2023-03-27T20:18:33.804Z,14.16
2023-03-27T20:20:47.497Z,14.19
2023-03-27T20:23:02.645Z,14.18
2023-03-27T20:25:15.862Z,14.16
2023-03-27T20:27:32.785Z,14.14
2023-03-27T20:29:45.554Z,14.07
2023-03-27T20:31:59.635Z,14.05
2023-03-27T20:34:12.828Z,14.02
2023-03-27T20:36:25.832Z,14.02
2023-03-27T20:38:39.433Z,13.99
2023-03-27T20:40:54.734Z,14.01
2023-03-27T20:43:10.718Z,14.03
2023-03-27T20:45:28.153Z,14.09
2023-03-27T20:47:43.967Z,14.09
2023-03-27T20:49:59.856Z,14.06
2023-03-27T20:52:13.317Z,13.99
2023-03-27T20:54:26.641Z,13.91
2023-03-27T20:56:39.336Z,13.90
2023-03-27T20:58:54.269Z,13.84
2023-03-27T21:01:10.022Z,13.82
2023-03-27T21:03:22.768Z,13.78
2023-03-27T21:05:39.816Z,13.73
2023-03-27T21:07:53.643Z,13.72
2023-03-27T21:10:07.703Z,13.74
2023-03-27T21:12:21.328Z,13.76
2023-03-27T21:14:34.883Z,13.71
2023-03-27T21:16:47.510Z,13.69
2023-03-27T21:19:00.281Z,13.68
2023-03-27T21:21:16.212Z,13.60
2023-03-27T21:23:29.024Z,13.57
2023-03-27T21:25:41.990Z,13.55
2023-03-27T21:27:58.539Z,13.59
2023-03-27T21:30:15.138Z,13.63
2023-03-27T21:32:30.430Z,13.65
2023-03-27T21:34:44.085Z,13.63
2023-03-27T21:36:59.173Z,13.59
2023-03-27T21:39:12.057Z,13.54
2023-03-27T21:41:25.740Z,13.43
2023-03-27T21:43:40.612Z,13.34
2023-03-27T21:45:55.082Z,13.28
2023-03-27T21:48:11.456Z,13.27
2023-03-27T21:50:25.690Z,13.28
2023-03-27T21:52:41.614Z,13.27
2023-03-27T21:55:02.880Z,13.26
2023-03-27T21:57:18.952Z,13.23
2023-03-27T21:59:33.443Z,13.16
2023-03-27T22:01:47.356Z,13.17
2023-03-27T22:04:03.257Z,13.16
2023-03-27T22:06:20.169Z,13.19
2023-03-27T22:08:33.188Z,13.17
2023-03-27T22:10:45.796Z,13.19
2023-03-27T22:13:01.761Z,13.21
2023-03-27T22:15:17.473Z,13.16
2023-03-27T22:17:33.177Z,13.09
2023-03-27T22:19:46.742Z,13.03
2023-03-27T22:22:02.420Z,13.03
2023-03-27T22:24:16.991Z,13.04
2023-03-27T22:26:32.920Z,13.03
2023-03-27T22:28:46.716Z,13.02
2023-03-27T22:30:59.891Z,12.99
2023-03-27T22:33:12.518Z,12.97
2023-03-27T22:35:25.184Z,12.93
2023-03-27T22:37:41.885Z,12.92
2023-03-27T22:39:55.932Z,12.92
2023-03-27T22:42:11.194Z,12.89
2023-03-27T22:44:23.931Z,12.87
2023-03-27T22:46:36.819Z,12.84
2023-03-27T22:48:50.202Z,12.83
2023-03-27T22:51:03.494Z,12.84
2023-03-27T22:53:17.013Z,12.86
2023-03-27T22:55:30.341Z,12.89
2023-03-27T22:57:43.576Z,12.91
2023-03-27T22:59:57.310Z,12.95
2023-03-27T23:02:10.415Z,12.98
2023-03-27T23:04:23.792Z,12.99
2023-03-27T23:06:39.517Z,13.01
2023-03-27T23:08:52.885Z,13.02
2023-03-27T23:11:09.976Z,13.02
2023-03-27T23:13:23.611Z,13.02
2023-03-27T23:15:37.882Z,13.01
2023-03-27T23:17:51.306Z,13.02
2023-03-27T23:20:06.636Z,13.01
2023-03-27T23:22:20.011Z,13.00
2023-03-27T23:24:36.089Z,13.02
2023-03-27T23:26:48.903Z,13.02
2023-03-27T23:29:01.778Z,13.00
2023-03-27T23:31:17.431Z,13.02
2023-03-27T23:33:33.403Z,13.05
2023-03-27T23:35:46.100Z,13.06
2023-03-27T23:37:59.727Z,13.03
2023-03-27T23:40:14.906Z,13.00
2023-03-27T23:42:28.208Z,13.02
2023-03-27T23:44:42.389Z,13.03
2023-03-27T23:46:56.022Z,13.02
2023-03-27T23:49:09.009Z,13.00
2023-03-27T23:51:22.853Z,12.96
2023-03-27T23:53:37.578Z,12.91
2023-03-27T23:55:51.498Z,12.89
2023-03-27T23:58:08.573Z,12.88
